sensor_id;sensor_type;location;lat;lon;timestamp;P1;durP1;ratioP1;P2;durP2;ratioP2
13580;SDS011;6861;46.170;7.222;2022-07-23T00:01:20;3.65;;;2.90;;
13580;SDS011;6861;46.170;7.222;2022-07-23T00:03:48;4.18;;;3.63;;
13580;SDS011;6861;46.170;7.222;2022-07-23T00:06:15;3.38;;;3.08;;
13580;SDS011;6861;46.170;7.222;2022-07-23T00:08:42;2.83;;;2.60;;
13580;SDS011;6861;46.170;7.222;2022-07-23T00:11:11;4.07;;;3.20;;
13580;SDS011;6861;46.170;7.222;2022-07-23T00:13:38;3.08;;;2.78;;
13580;SDS011;6861;46.170;7.222;2022-07-23T00:16:05;3.17;;;2.88;;
13580;SDS011;6861;46.170;7.222;2022-07-23T00:18:33;3.75;;;3.00;;
13580;SDS011;6861;46.170;7.222;2022-07-23T00:21:00;3.95;;;2.80;;
13580;SDS011;6861;46.170;7.222;2022-07-23T00:23:27;3.42;;;2.88;;
13580;SDS011;6861;46.170;7.222;2022-07-23T00:25:56;3.50;;;3.20;;
13580;SDS011;6861;46.170;7.222;2022-07-23T00:28:24;4.07;;;3.50;;
13580;SDS011;6861;46.170;7.222;2022-07-23T00:30:51;3.97;;;3.25;;
13580;SDS011;6861;46.170;7.222;2022-07-23T00:33:19;4.60;;;3.20;;
13580;SDS011;6861;46.170;7.222;2022-07-23T00:35:46;4.65;;;3.60;;
13580;SDS011;6861;46.170;7.222;2022-07-23T00:38:13;4.05;;;3.65;;
13580;SDS011;6861;46.170;7.222;2022-07-23T00:40:40;4.18;;;3.42;;
13580;SDS011;6861;46.170;7.222;2022-07-23T00:43:07;4.47;;;3.10;;
13580;SDS011;6861;46.170;7.222;2022-07-23T00:45:35;3.88;;;3.20;;
13580;SDS011;6861;46.170;7.222;2022-07-23T00:48:02;3.88;;;3.58;;
13580;SDS011;6861;46.170;7.222;2022-07-23T00:50:30;4.03;;;3.40;;
13580;SDS011;6861;46.170;7.222;2022-07-23T00:52:57;3.67;;;3.38;;
13580;SDS011;6861;46.170;7.222;2022-07-23T00:55:24;4.10;;;3.70;;
13580;SDS011;6861;46.170;7.222;2022-07-23T00:57:51;4.18;;;3.22;;
13580;SDS011;6861;46.170;7.222;2022-07-23T01:00:20;4.63;;;4.13;;
13580;SDS011;6861;46.170;7.222;2022-07-23T01:02:49;4.47;;;3.92;;
13580;SDS011;6861;46.170;7.222;2022-07-23T01:05:16;4.53;;;4.10;;
13580;SDS011;6861;46.170;7.222;2022-07-23T01:07:47;4.00;;;3.63;;
13580;SDS011;6861;46.170;7.222;2022-07-23T01:10:14;4.95;;;4.10;;
13580;SDS011;6861;46.170;7.222;2022-07-23T01:13:01;5.88;;;4.70;;
13580;SDS011;6861;46.170;7.222;2022-07-23T01:15:29;6.10;;;4.65;;
13580;SDS011;6861;46.170;7.222;2022-07-23T01:17:59;6.88;;;4.97;;
13580;SDS011;6861;46.170;7.222;2022-07-23T01:20:26;8.02;;;5.15;;
13580;SDS011;6861;46.170;7.222;2022-07-23T01:22:54;5.20;;;4.65;;
13580;SDS011;6861;46.170;7.222;2022-07-23T01:25:22;5.95;;;4.32;;
13580;SDS011;6861;46.170;7.222;2022-07-23T01:27:49;4.85;;;4.45;;
13580;SDS011;6861;46.170;7.222;2022-07-23T01:30:18;6.55;;;4.68;;
13580;SDS011;6861;46.170;7.222;2022-07-23T01:32:45;5.32;;;4.40;;
13580;SDS011;6861;46.170;7.222;2022-07-23T01:35:12;5.65;;;4.53;;
13580;SDS011;6861;46.170;7.222;2022-07-23T01:37:39;4.68;;;4.28;;
13580;SDS011;6861;46.170;7.222;2022-07-23T01:40:08;4.60;;;4.20;;
13580;SDS011;6861;46.170;7.222;2022-07-23T01:42:36;6.20;;;4.35;;
13580;SDS011;6861;46.170;7.222;2022-07-23T01:45:03;5.40;;;4.70;;
13580;SDS011;6861;46.170;7.222;2022-07-23T01:47:31;4.97;;;4.45;;
13580;SDS011;6861;46.170;7.222;2022-07-23T01:49:58;6.25;;;4.90;;
13580;SDS011;6861;46.170;7.222;2022-07-23T01:52:25;5.63;;;4.38;;
13580;SDS011;6861;46.170;7.222;2022-07-23T01:54:52;5.25;;;4.75;;
13580;SDS011;6861;46.170;7.222;2022-07-23T01:57:21;4.80;;;4.35;;
13580;SDS011;6861;46.170;7.222;2022-07-23T01:59:48;6.53;;;4.65;;
13580;SDS011;6861;46.170;7.222;2022-07-23T02:02:14;5.65;;;4.53;;
13580;SDS011;6861;46.170;7.222;2022-07-23T02:04:41;5.18;;;4.25;;
13580;SDS011;6861;46.170;7.222;2022-07-23T02:07:08;4.95;;;4.50;;
13580;SDS011;6861;46.170;7.222;2022-07-23T02:09:35;5.00;;;4.45;;
13580;SDS011;6861;46.170;7.222;2022-07-23T02:12:02;5.95;;;4.45;;
13580;SDS011;6861;46.170;7.222;2022-07-23T02:14:31;5.45;;;4.25;;
13580;SDS011;6861;46.170;7.222;2022-07-23T02:16:58;5.50;;;4.28;;
13580;SDS011;6861;46.170;7.222;2022-07-23T02:19:25;5.00;;;4.50;;
13580;SDS011;6861;46.170;7.222;2022-07-23T02:21:52;5.93;;;4.97;;
13580;SDS011;6861;46.170;7.222;2022-07-23T02:24:19;5.10;;;4.70;;
13580;SDS011;6861;46.170;7.222;2022-07-23T02:26:46;4.82;;;4.43;;
13580;SDS011;6861;46.170;7.222;2022-07-23T02:29:13;4.93;;;4.32;;
13580;SDS011;6861;46.170;7.222;2022-07-23T02:31:42;4.65;;;4.20;;
13580;SDS011;6861;46.170;7.222;2022-07-23T02:34:09;6.40;;;4.95;;
13580;SDS011;6861;46.170;7.222;2022-07-23T02:36:37;5.15;;;4.25;;
13580;SDS011;6861;46.170;7.222;2022-07-23T02:39:04;5.90;;;4.53;;
13580;SDS011;6861;46.170;7.222;2022-07-23T02:41:31;5.65;;;4.97;;
13580;SDS011;6861;46.170;7.222;2022-07-23T02:43:58;6.80;;;4.30;;
13580;SDS011;6861;46.170;7.222;2022-07-23T02:46:25;5.28;;;4.78;;
13580;SDS011;6861;46.170;7.222;2022-07-23T02:48:53;5.07;;;4.57;;
13580;SDS011;6861;46.170;7.222;2022-07-23T02:51:20;6.30;;;4.22;;
13580;SDS011;6861;46.170;7.222;2022-07-23T02:53:47;5.63;;;4.35;;
13580;SDS011;6861;46.170;7.222;2022-07-23T02:56:14;5.50;;;4.43;;
13580;SDS011;6861;46.170;7.222;2022-07-23T02:58:41;6.07;;;4.82;;
13580;SDS011;6861;46.170;7.222;2022-07-23T03:01:08;6.82;;;4.85;;
13580;SDS011;6861;46.170;7.222;2022-07-23T03:03:35;5.97;;;5.15;;
13580;SDS011;6861;46.170;7.222;2022-07-23T03:06:04;6.93;;;5.30;;
13580;SDS011;6861;46.170;7.222;2022-07-23T03:08:31;5.80;;;5.25;;
13580;SDS011;6861;46.170;7.222;2022-07-23T03:10:58;5.82;;;5.13;;
13580;SDS011;6861;46.170;7.222;2022-07-23T03:13:25;5.72;;;5.07;;
13580;SDS011;6861;46.170;7.222;2022-07-23T03:15:52;5.32;;;4.82;;
13580;SDS011;6861;46.170;7.222;2022-07-23T03:18:19;5.43;;;4.90;;
13580;SDS011;6861;46.170;7.222;2022-07-23T03:20:46;6.07;;;4.70;;
13580;SDS011;6861;46.170;7.222;2022-07-23T03:23:15;7.20;;;5.15;;
13580;SDS011;6861;46.170;7.222;2022-07-23T03:25:42;7.60;;;5.20;;
13580;SDS011;6861;46.170;7.222;2022-07-23T03:28:09;5.60;;;5.00;;
13580;SDS011;6861;46.170;7.222;2022-07-23T03:30:36;5.55;;;4.93;;
13580;SDS011;6861;46.170;7.222;2022-07-23T03:33:03;6.40;;;5.65;;
13580;SDS011;6861;46.170;7.222;2022-07-23T03:35:30;5.95;;;5.22;;
13580;SDS011;6861;46.170;7.222;2022-07-23T03:37:57;6.40;;;5.55;;
13580;SDS011;6861;46.170;7.222;2022-07-23T03:40:25;6.70;;;5.25;;
13580;SDS011;6861;46.170;7.222;2022-07-23T03:42:52;6.97;;;5.88;;
13580;SDS011;6861;46.170;7.222;2022-07-23T03:45:19;6.40;;;5.70;;
13580;SDS011;6861;46.170;7.222;2022-07-23T03:47:46;7.53;;;6.35;;
13580;SDS011;6861;46.170;7.222;2022-07-23T03:50:13;7.40;;;6.20;;
13580;SDS011;6861;46.170;7.222;2022-07-23T03:52:40;7.15;;;6.45;;
13580;SDS011;6861;46.170;7.222;2022-07-23T03:55:07;7.88;;;6.53;;
13580;SDS011;6861;46.170;7.222;2022-07-23T03:57:36;8.63;;;6.55;;
13580;SDS011;6861;46.170;7.222;2022-07-23T04:00:04;7.35;;;6.32;;
13580;SDS011;6861;46.170;7.222;2022-07-23T04:02:34;8.23;;;6.97;;
13580;SDS011;6861;46.170;7.222;2022-07-23T04:05:00;8.07;;;6.65;;
13580;SDS011;6861;46.170;7.222;2022-07-23T04:07:28;10.60;;;6.75;;
13580;SDS011;6861;46.170;7.222;2022-07-23T04:09:55;9.27;;;6.70;;
13580;SDS011;6861;46.170;7.222;2022-07-23T04:12:22;7.55;;;6.85;;
13580;SDS011;6861;46.170;7.222;2022-07-23T04:14:51;9.88;;;7.07;;
13580;SDS011;6861;46.170;7.222;2022-07-23T04:17:18;7.15;;;6.55;;
13580;SDS011;6861;46.170;7.222;2022-07-23T04:19:45;6.30;;;5.70;;
13580;SDS011;6861;46.170;7.222;2022-07-23T04:22:11;7.32;;;6.45;;
13580;SDS011;6861;46.170;7.222;2022-07-23T04:24:39;8.43;;;6.80;;
13580;SDS011;6861;46.170;7.222;2022-07-23T04:27:06;8.18;;;6.03;;
13580;SDS011;6861;46.170;7.222;2022-07-23T04:29:33;8.35;;;6.13;;
13580;SDS011;6861;46.170;7.222;2022-07-23T04:32:01;7.82;;;6.65;;
13580;SDS011;6861;46.170;7.222;2022-07-23T04:34:28;6.80;;;6.10;;
13580;SDS011;6861;46.170;7.222;2022-07-23T04:36:55;7.07;;;6.20;;
13580;SDS011;6861;46.170;7.222;2022-07-23T04:39:22;8.73;;;6.80;;
13580;SDS011;6861;46.170;7.222;2022-07-23T04:41:49;8.13;;;6.90;;
13580;SDS011;6861;46.170;7.222;2022-07-23T04:44:16;7.90;;;6.57;;
13580;SDS011;6861;46.170;7.222;2022-07-23T04:46:43;8.45;;;6.50;;
13580;SDS011;6861;46.170;7.222;2022-07-23T04:49:11;9.90;;;6.63;;
13580;SDS011;6861;46.170;7.222;2022-07-23T04:51:38;7.80;;;6.57;;
13580;SDS011;6861;46.170;7.222;2022-07-23T04:54:05;7.47;;;6.57;;
13580;SDS011;6861;46.170;7.222;2022-07-23T04:56:32;7.30;;;6.60;;
13580;SDS011;6861;46.170;7.222;2022-07-23T04:58:59;8.32;;;6.25;;
13580;SDS011;6861;46.170;7.222;2022-07-23T05:01:26;6.85;;;6.10;;
13580;SDS011;6861;46.170;7.222;2022-07-23T05:03:53;7.53;;;6.15;;
13580;SDS011;6861;46.170;7.222;2022-07-23T05:06:22;7.00;;;6.30;;
13580;SDS011;6861;46.170;7.222;2022-07-23T05:08:48;8.55;;;6.50;;
13580;SDS011;6861;46.170;7.222;2022-07-23T05:11:15;7.75;;;6.70;;
13580;SDS011;6861;46.170;7.222;2022-07-23T05:13:43;7.45;;;6.07;;
13580;SDS011;6861;46.170;7.222;2022-07-23T05:16:10;6.55;;;5.53;;
13580;SDS011;6861;46.170;7.222;2022-07-23T05:18:36;6.45;;;5.80;;
13580;SDS011;6861;46.170;7.222;2022-07-23T05:21:04;8.18;;;6.22;;
13580;SDS011;6861;46.170;7.222;2022-07-23T05:23:32;7.07;;;6.38;;
13580;SDS011;6861;46.170;7.222;2022-07-23T05:25:59;7.57;;;6.78;;
13580;SDS011;6861;46.170;7.222;2022-07-23T05:28:26;7.30;;;6.40;;
13580;SDS011;6861;46.170;7.222;2022-07-23T05:30:54;6.80;;;6.20;;
13580;SDS011;6861;46.170;7.222;2022-07-23T05:33:21;9.63;;;6.38;;
13580;SDS011;6861;46.170;7.222;2022-07-23T05:35:48;8.45;;;6.15;;
13580;SDS011;6861;46.170;7.222;2022-07-23T05:38:15;9.57;;;6.50;;
13580;SDS011;6861;46.170;7.222;2022-07-23T05:40:43;7.38;;;6.57;;
13580;SDS011;6861;46.170;7.222;2022-07-23T05:43:10;7.97;;;6.15;;
13580;SDS011;6861;46.170;7.222;2022-07-23T05:45:37;7.35;;;6.50;;
13580;SDS011;6861;46.170;7.222;2022-07-23T05:48:04;8.23;;;6.13;;
13580;SDS011;6861;46.170;7.222;2022-07-23T05:50:31;7.20;;;6.50;;
13580;SDS011;6861;46.170;7.222;2022-07-23T05:52:58;7.68;;;6.57;;
13580;SDS011;6861;46.170;7.222;2022-07-23T05:55:25;8.45;;;7.03;;
13580;SDS011;6861;46.170;7.222;2022-07-23T05:57:55;7.68;;;6.63;;
13580;SDS011;6861;46.170;7.222;2022-07-23T06:00:22;7.68;;;6.38;;
13580;SDS011;6861;46.170;7.222;2022-07-23T06:02:49;7.20;;;6.60;;
13580;SDS011;6861;46.170;7.222;2022-07-23T06:05:17;7.50;;;6.80;;
13580;SDS011;6861;46.170;7.222;2022-07-23T06:07:44;9.93;;;6.82;;
13580;SDS011;6861;46.170;7.222;2022-07-23T06:10:11;7.22;;;6.53;;
13580;SDS011;6861;46.170;7.222;2022-07-23T06:12:38;6.97;;;6.30;;
13580;SDS011;6861;46.170;7.222;2022-07-23T06:15:07;8.43;;;6.70;;
13580;SDS011;6861;46.170;7.222;2022-07-23T06:17:35;7.32;;;6.65;;
13580;SDS011;6861;46.170;7.222;2022-07-23T06:20:04;7.93;;;6.50;;
13580;SDS011;6861;46.170;7.222;2022-07-23T06:22:32;7.82;;;6.88;;
13580;SDS011;6861;46.170;7.222;2022-07-23T06:24:59;7.40;;;6.32;;
13580;SDS011;6861;46.170;7.222;2022-07-23T06:27:26;7.88;;;6.57;;
13580;SDS011;6861;46.170;7.222;2022-07-23T06:29:53;6.88;;;6.28;;
13580;SDS011;6861;46.170;7.222;2022-07-23T06:32:21;7.80;;;7.00;;
13580;SDS011;6861;46.170;7.222;2022-07-23T06:34:48;7.10;;;6.50;;
13580;SDS011;6861;46.170;7.222;2022-07-23T06:37:15;7.50;;;6.22;;
13580;SDS011;6861;46.170;7.222;2022-07-23T06:39:42;6.60;;;5.75;;
13580;SDS011;6861;46.170;7.222;2022-07-23T06:42:09;7.32;;;6.30;;
13580;SDS011;6861;46.170;7.222;2022-07-23T06:44:37;7.47;;;6.10;;
13580;SDS011;6861;46.170;7.222;2022-07-23T06:47:04;7.53;;;5.88;;
13580;SDS011;6861;46.170;7.222;2022-07-23T06:49:33;6.63;;;6.03;;
13580;SDS011;6861;46.170;7.222;2022-07-23T06:51:59;7.43;;;6.57;;
13580;SDS011;6861;46.170;7.222;2022-07-23T06:54:26;9.15;;;6.55;;
13580;SDS011;6861;46.170;7.222;2022-07-23T06:56:53;7.18;;;6.47;;
13580;SDS011;6861;46.170;7.222;2022-07-23T06:59:20;6.82;;;6.13;;
13580;SDS011;6861;46.170;7.222;2022-07-23T07:01:47;7.00;;;6.30;;
13580;SDS011;6861;46.170;7.222;2022-07-23T07:04:14;6.97;;;6.25;;
13580;SDS011;6861;46.170;7.222;2022-07-23T07:06:43;6.78;;;6.10;;
13580;SDS011;6861;46.170;7.222;2022-07-23T07:09:10;6.95;;;6.25;;
13580;SDS011;6861;46.170;7.222;2022-07-23T07:11:37;8.00;;;7.05;;
13580;SDS011;6861;46.170;7.222;2022-07-23T07:14:04;7.65;;;6.85;;
13580;SDS011;6861;46.170;7.222;2022-07-23T07:16:32;7.18;;;6.47;;
13580;SDS011;6861;46.170;7.222;2022-07-23T07:18:58;10.93;;;6.93;;
13580;SDS011;6861;46.170;7.222;2022-07-23T07:21:25;7.90;;;6.63;;
13580;SDS011;6861;46.170;7.222;2022-07-23T07:23:54;9.35;;;6.85;;
13580;SDS011;6861;46.170;7.222;2022-07-23T07:26:21;8.38;;;7.10;;
13580;SDS011;6861;46.170;7.222;2022-07-23T07:28:48;6.97;;;6.32;;
13580;SDS011;6861;46.170;7.222;2022-07-23T07:31:15;8.85;;;6.68;;
13580;SDS011;6861;46.170;7.222;2022-07-23T07:33:42;7.68;;;6.45;;
13580;SDS011;6861;46.170;7.222;2022-07-23T07:36:09;7.68;;;6.43;;
13580;SDS011;6861;46.170;7.222;2022-07-23T07:38:36;7.47;;;6.22;;
13580;SDS011;6861;46.170;7.222;2022-07-23T07:41:04;7.68;;;6.65;;
13580;SDS011;6861;46.170;7.222;2022-07-23T07:43:32;8.52;;;6.63;;
13580;SDS011;6861;46.170;7.222;2022-07-23T07:45:59;7.28;;;5.78;;
13580;SDS011;6861;46.170;7.222;2022-07-23T07:48:26;8.75;;;6.95;;
13580;SDS011;6861;46.170;7.222;2022-07-23T07:50:53;7.35;;;6.20;;
13580;SDS011;6861;46.170;7.222;2022-07-23T07:53:20;6.95;;;6.28;;
13580;SDS011;6861;46.170;7.222;2022-07-23T07:55:47;8.10;;;6.72;;
13580;SDS011;6861;46.170;7.222;2022-07-23T07:58:16;7.03;;;6.32;;
13580;SDS011;6861;46.170;7.222;2022-07-23T08:00:42;6.97;;;6.32;;
13580;SDS011;6861;46.170;7.222;2022-07-23T08:03:09;7.00;;;6.07;;
13580;SDS011;6861;46.170;7.222;2022-07-23T08:05:36;6.93;;;6.00;;
13580;SDS011;6861;46.170;7.222;2022-07-23T08:08:04;6.50;;;5.90;;
13580;SDS011;6861;46.170;7.222;2022-07-23T08:10:31;8.02;;;6.70;;
13580;SDS011;6861;46.170;7.222;2022-07-23T08:12:58;7.07;;;6.38;;
13580;SDS011;6861;46.170;7.222;2022-07-23T08:15:28;7.03;;;6.32;;
13580;SDS011;6861;46.170;7.222;2022-07-23T08:17:56;7.32;;;6.20;;
13580;SDS011;6861;46.170;7.222;2022-07-23T08:20:23;6.88;;;6.28;;
13580;SDS011;6861;46.170;7.222;2022-07-23T08:22:52;6.93;;;6.22;;
13580;SDS011;6861;46.170;7.222;2022-07-23T08:25:21;6.38;;;5.78;;
13580;SDS011;6861;46.170;7.222;2022-07-23T08:27:49;7.05;;;6.30;;
13580;SDS011;6861;46.170;7.222;2022-07-23T08:30:17;8.38;;;6.25;;
13580;SDS011;6861;46.170;7.222;2022-07-23T08:32:53;6.53;;;5.93;;
13580;SDS011;6861;46.170;7.222;2022-07-23T08:35:22;6.60;;;5.90;;
13580;SDS011;6861;46.170;7.222;2022-07-23T08:37:51;7.13;;;6.10;;
13580;SDS011;6861;46.170;7.222;2022-07-23T08:40:18;6.50;;;5.90;;
13580;SDS011;6861;46.170;7.222;2022-07-23T08:42:46;7.40;;;6.53;;
13580;SDS011;6861;46.170;7.222;2022-07-23T08:45:15;6.60;;;6.00;;
13580;SDS011;6861;46.170;7.222;2022-07-23T08:47:47;6.45;;;5.80;;
13580;SDS011;6861;46.170;7.222;2022-07-23T08:50:17;7.72;;;6.38;;
13580;SDS011;6861;46.170;7.222;2022-07-23T08:52:44;6.38;;;5.78;;
13580;SDS011;6861;46.170;7.222;2022-07-23T08:55:12;6.55;;;5.95;;
13580;SDS011;6861;46.170;7.222;2022-07-23T08:57:41;6.75;;;6.15;;
13580;SDS011;6861;46.170;7.222;2022-07-23T09:00:08;6.82;;;6.22;;
13580;SDS011;6861;46.170;7.222;2022-07-23T09:02:39;6.75;;;6.15;;
13580;SDS011;6861;46.170;7.222;2022-07-23T09:05:08;6.65;;;6.05;;
13580;SDS011;6861;46.170;7.222;2022-07-23T09:07:37;7.32;;;6.25;;
13580;SDS011;6861;46.170;7.222;2022-07-23T09:10:25;7.75;;;5.75;;
13580;SDS011;6861;46.170;7.222;2022-07-23T09:12:52;8.43;;;6.18;;
13580;SDS011;6861;46.170;7.222;2022-07-23T09:15:19;6.65;;;5.85;;
13580;SDS011;6861;46.170;7.222;2022-07-23T09:17:46;6.80;;;6.10;;
13580;SDS011;6861;46.170;7.222;2022-07-23T09:20:14;6.57;;;5.88;;
13580;SDS011;6861;46.170;7.222;2022-07-23T09:22:45;6.95;;;5.88;;
13580;SDS011;6861;46.170;7.222;2022-07-23T09:25:15;6.38;;;5.88;;
13580;SDS011;6861;46.170;7.222;2022-07-23T09:27:45;6.72;;;5.88;;
13580;SDS011;6861;46.170;7.222;2022-07-23T09:30:14;7.07;;;6.38;;
13580;SDS011;6861;46.170;7.222;2022-07-23T09:32:42;6.65;;;6.05;;
13580;SDS011;6861;46.170;7.222;2022-07-23T09:35:09;7.07;;;6.38;;
13580;SDS011;6861;46.170;7.222;2022-07-23T09:37:37;6.25;;;5.72;;
13580;SDS011;6861;46.170;7.222;2022-07-23T09:40:06;6.20;;;5.68;;
13580;SDS011;6861;46.170;7.222;2022-07-23T09:42:37;7.82;;;5.50;;
13580;SDS011;6861;46.170;7.222;2022-07-23T09:45:06;5.82;;;5.25;;
13580;SDS011;6861;46.170;7.222;2022-07-23T09:47:37;5.93;;;5.43;;
13580;SDS011;6861;46.170;7.222;2022-07-23T09:50:05;6.38;;;5.72;;
13580;SDS011;6861;46.170;7.222;2022-07-23T09:52:35;7.72;;;5.85;;
13580;SDS011;6861;46.170;7.222;2022-07-23T09:55:10;6.00;;;5.40;;
13580;SDS011;6861;46.170;7.222;2022-07-23T09:57:38;6.53;;;5.80;;
13580;SDS011;6861;46.170;7.222;2022-07-23T10:00:09;6.13;;;5.57;;
13580;SDS011;6861;46.170;7.222;2022-07-23T10:02:37;5.95;;;5.45;;
13580;SDS011;6861;46.170;7.222;2022-07-23T10:05:06;6.15;;;5.53;;
13580;SDS011;6861;46.170;7.222;2022-07-23T10:07:34;6.70;;;6.10;;
13580;SDS011;6861;46.170;7.222;2022-07-23T10:10:03;6.03;;;5.50;;
13580;SDS011;6861;46.170;7.222;2022-07-23T10:12:33;7.28;;;5.00;;
13580;SDS011;6861;46.170;7.222;2022-07-23T10:15:14;7.85;;;5.38;;
13580;SDS011;6861;46.170;7.222;2022-07-23T10:17:42;6.00;;;5.40;;
13580;SDS011;6861;46.170;7.222;2022-07-23T10:20:09;7.72;;;6.00;;
13580;SDS011;6861;46.170;7.222;2022-07-23T10:22:37;6.20;;;5.60;;
13580;SDS011;6861;46.170;7.222;2022-07-23T10:25:11;6.47;;;5.65;;
13580;SDS011;6861;46.170;7.222;2022-07-23T10:30:52;6.07;;;5.47;;
13580;SDS011;6861;46.170;7.222;2022-07-23T10:33:32;5.72;;;5.22;;
13580;SDS011;6861;46.170;7.222;2022-07-23T10:36:09;5.45;;;5.05;;
13580;SDS011;6861;46.170;7.222;2022-07-23T10:38:48;5.88;;;5.30;;
13580;SDS011;6861;46.170;7.222;2022-07-23T10:44:08;6.60;;;5.10;;
13580;SDS011;6861;46.170;7.222;2022-07-23T10:46:36;5.70;;;5.20;;
13580;SDS011;6861;46.170;7.222;2022-07-23T10:49:27;5.85;;;5.28;;
13580;SDS011;6861;46.170;7.222;2022-07-23T10:54:45;5.93;;;5.40;;
13580;SDS011;6861;46.170;7.222;2022-07-23T10:57:14;5.88;;;5.30;;
13580;SDS011;6861;46.170;7.222;2022-07-23T11:02:54;5.80;;;5.30;;
13580;SDS011;6861;46.170;7.222;2022-07-23T11:05:24;5.72;;;5.13;;
13580;SDS011;6861;46.170;7.222;2022-07-23T11:10:43;7.43;;;5.50;;
13580;SDS011;6861;46.170;7.222;2022-07-23T11:13:32;6.60;;;6.00;;
13580;SDS011;6861;46.170;7.222;2022-07-23T11:16:18;6.20;;;5.57;;
13580;SDS011;6861;46.170;7.222;2022-07-23T11:19:02;5.88;;;5.30;;
13580;SDS011;6861;46.170;7.222;2022-07-23T11:21:43;6.25;;;5.30;;
13580;SDS011;6861;46.170;7.222;2022-07-23T11:24:12;6.00;;;5.40;;
13580;SDS011;6861;46.170;7.222;2022-07-23T11:26:43;5.93;;;5.40;;
13580;SDS011;6861;46.170;7.222;2022-07-23T11:32:18;6.45;;;5.45;;
13580;SDS011;6861;46.170;7.222;2022-07-23T11:34:49;6.25;;;5.53;;
13580;SDS011;6861;46.170;7.222;2022-07-23T11:37:34;7.00;;;5.63;;
13580;SDS011;6861;46.170;7.222;2022-07-23T11:40:04;7.03;;;5.68;;
13580;SDS011;6861;46.170;7.222;2022-07-23T11:42:34;6.85;;;5.60;;
13580;SDS011;6861;46.170;7.222;2022-07-23T11:45:03;6.15;;;5.57;;
13580;SDS011;6861;46.170;7.222;2022-07-23T11:47:33;6.00;;;5.40;;
13580;SDS011;6861;46.170;7.222;2022-07-23T11:50:01;6.05;;;5.50;;
13580;SDS011;6861;46.170;7.222;2022-07-23T11:52:31;7.68;;;5.80;;
13580;SDS011;6861;46.170;7.222;2022-07-23T11:54:59;6.60;;;5.63;;
13580;SDS011;6861;46.170;7.222;2022-07-23T11:57:28;6.13;;;5.53;;
13580;SDS011;6861;46.170;7.222;2022-07-23T11:59:57;8.20;;;5.78;;
13580;SDS011;6861;46.170;7.222;2022-07-23T12:02:32;6.80;;;5.80;;
13580;SDS011;6861;46.170;7.222;2022-07-23T12:04:59;6.43;;;5.82;;
13580;SDS011;6861;46.170;7.222;2022-07-23T12:07:30;8.40;;;6.22;;
13580;SDS011;6861;46.170;7.222;2022-07-23T12:09:59;7.95;;;5.93;;
13580;SDS011;6861;46.170;7.222;2022-07-23T12:12:27;7.95;;;5.80;;
13580;SDS011;6861;46.170;7.222;2022-07-23T12:15:02;6.70;;;6.10;;
13580;SDS011;6861;46.170;7.222;2022-07-23T12:17:31;6.45;;;5.88;;
13580;SDS011;6861;46.170;7.222;2022-07-23T12:20:02;6.22;;;5.63;;
13580;SDS011;6861;46.170;7.222;2022-07-23T12:22:35;7.75;;;6.15;;
13580;SDS011;6861;46.170;7.222;2022-07-23T12:25:06;8.07;;;6.28;;
13580;SDS011;6861;46.170;7.222;2022-07-23T12:27:35;7.15;;;5.90;;
13580;SDS011;6861;46.170;7.222;2022-07-23T12:30:15;7.97;;;6.50;;
13580;SDS011;6861;46.170;7.222;2022-07-23T12:32:48;7.85;;;6.40;;
13580;SDS011;6861;46.170;7.222;2022-07-23T12:35:16;6.95;;;6.18;;
13580;SDS011;6861;46.170;7.222;2022-07-23T12:37:44;7.22;;;6.10;;
13580;SDS011;6861;46.170;7.222;2022-07-23T12:40:22;6.53;;;5.93;;
13580;SDS011;6861;46.170;7.222;2022-07-23T12:42:56;6.28;;;5.60;;
13580;SDS011;6861;46.170;7.222;2022-07-23T12:45:24;8.10;;;6.32;;
13580;SDS011;6861;46.170;7.222;2022-07-23T12:48:05;6.88;;;6.18;;
13580;SDS011;6861;46.170;7.222;2022-07-23T12:50:40;7.40;;;5.88;;
13580;SDS011;6861;46.170;7.222;2022-07-23T12:53:09;6.68;;;6.03;;
13580;SDS011;6861;46.170;7.222;2022-07-23T12:55:38;7.22;;;6.28;;
13580;SDS011;6861;46.170;7.222;2022-07-23T12:58:07;6.45;;;5.82;;
13580;SDS011;6861;46.170;7.222;2022-07-23T13:03:35;7.07;;;6.45;;
13580;SDS011;6861;46.170;7.222;2022-07-23T13:06:04;8.70;;;6.43;;
13580;SDS011;6861;46.170;7.222;2022-07-23T13:08:33;6.55;;;5.88;;
13580;SDS011;6861;46.170;7.222;2022-07-23T13:11:01;6.43;;;5.82;;
13580;SDS011;6861;46.170;7.222;2022-07-23T13:13:30;7.10;;;6.40;;
13580;SDS011;6861;46.170;7.222;2022-07-23T13:15:58;6.43;;;5.82;;
13580;SDS011;6861;46.170;7.222;2022-07-23T13:18:26;6.40;;;5.75;;
13580;SDS011;6861;46.170;7.222;2022-07-23T13:20:55;7.38;;;5.90;;
13580;SDS011;6861;46.170;7.222;2022-07-23T13:23:22;6.57;;;5.75;;
13580;SDS011;6861;46.170;7.222;2022-07-23T13:25:50;7.43;;;6.10;;
13580;SDS011;6861;46.170;7.222;2022-07-23T13:28:18;8.45;;;6.30;;
13580;SDS011;6861;46.170;7.222;2022-07-23T13:30:46;8.38;;;5.85;;
13580;SDS011;6861;46.170;7.222;2022-07-23T13:33:15;7.18;;;6.10;;
13580;SDS011;6861;46.170;7.222;2022-07-23T13:35:43;8.10;;;6.53;;
13580;SDS011;6861;46.170;7.222;2022-07-23T13:38:12;7.82;;;6.07;;
13580;SDS011;6861;46.170;7.222;2022-07-23T13:40:39;7.13;;;5.90;;
13580;SDS011;6861;46.170;7.222;2022-07-23T13:43:08;6.90;;;6.25;;
13580;SDS011;6861;46.170;7.222;2022-07-23T13:45:36;7.10;;;6.15;;
13580;SDS011;6861;46.170;7.222;2022-07-23T13:48:04;6.85;;;6.10;;
13580;SDS011;6861;46.170;7.222;2022-07-23T13:50:33;6.65;;;5.97;;
13580;SDS011;6861;46.170;7.222;2022-07-23T13:53:00;6.97;;;6.28;;
13580;SDS011;6861;46.170;7.222;2022-07-23T13:55:30;6.93;;;6.10;;
13580;SDS011;6861;46.170;7.222;2022-07-23T13:57:58;11.73;;;6.47;;
13580;SDS011;6861;46.170;7.222;2022-07-23T14:00:25;7.25;;;6.55;;
13580;SDS011;6861;46.170;7.222;2022-07-23T14:02:53;7.25;;;6.45;;
13580;SDS011;6861;46.170;7.222;2022-07-23T14:05:20;8.25;;;5.85;;
13580;SDS011;6861;46.170;7.222;2022-07-23T14:07:47;7.43;;;5.97;;
13580;SDS011;6861;46.170;7.222;2022-07-23T14:10:16;7.47;;;6.55;;
13580;SDS011;6861;46.170;7.222;2022-07-23T14:12:47;7.13;;;6.43;;
13580;SDS011;6861;46.170;7.222;2022-07-23T14:15:15;8.32;;;6.57;;
13580;SDS011;6861;46.170;7.222;2022-07-23T14:17:44;7.30;;;6.57;;
13580;SDS011;6861;46.170;7.222;2022-07-23T14:20:12;7.35;;;6.38;;
13580;SDS011;6861;46.170;7.222;2022-07-23T14:22:40;7.03;;;6.35;;
13580;SDS011;6861;46.170;7.222;2022-07-23T14:25:08;10.05;;;5.90;;
13580;SDS011;6861;46.170;7.222;2022-07-23T14:27:36;9.48;;;6.20;;
13580;SDS011;6861;46.170;7.222;2022-07-23T14:30:06;6.97;;;6.38;;
13580;SDS011;6861;46.170;7.222;2022-07-23T14:32:35;8.85;;;6.10;;
13580;SDS011;6861;46.170;7.222;2022-07-23T14:35:02;6.72;;;6.03;;
13580;SDS011;6861;46.170;7.222;2022-07-23T14:37:31;7.72;;;6.40;;
13580;SDS011;6861;46.170;7.222;2022-07-23T14:39:58;7.05;;;6.45;;
13580;SDS011;6861;46.170;7.222;2022-07-23T14:42:25;6.75;;;6.05;;
13580;SDS011;6861;46.170;7.222;2022-07-23T14:44:52;6.88;;;6.28;;
13580;SDS011;6861;46.170;7.222;2022-07-23T14:47:21;7.53;;;6.32;;
13580;SDS011;6861;46.170;7.222;2022-07-23T14:49:48;6.90;;;6.13;;
13580;SDS011;6861;46.170;7.222;2022-07-23T14:52:15;7.68;;;5.97;;
13580;SDS011;6861;46.170;7.222;2022-07-23T14:54:42;8.90;;;6.28;;
13580;SDS011;6861;46.170;7.222;2022-07-23T14:57:09;8.13;;;6.28;;
13580;SDS011;6861;46.170;7.222;2022-07-23T14:59:36;8.88;;;6.20;;
13580;SDS011;6861;46.170;7.222;2022-07-23T15:02:03;8.88;;;6.20;;
13580;SDS011;6861;46.170;7.222;2022-07-23T15:04:32;7.88;;;6.85;;
13580;SDS011;6861;46.170;7.222;2022-07-23T15:06:59;6.82;;;6.10;;
13580;SDS011;6861;46.170;7.222;2022-07-23T15:09:25;9.60;;;6.80;;
13580;SDS011;6861;46.170;7.222;2022-07-23T15:11:52;7.22;;;6.53;;
13580;SDS011;6861;46.170;7.222;2022-07-23T15:14:19;6.70;;;6.10;;
13580;SDS011;6861;46.170;7.222;2022-07-23T15:16:47;7.72;;;6.90;;
13580;SDS011;6861;46.170;7.222;2022-07-23T15:19:14;8.23;;;6.53;;
13580;SDS011;6861;46.170;7.222;2022-07-23T15:21:42;7.25;;;6.53;;
13580;SDS011;6861;46.170;7.222;2022-07-23T15:24:09;7.15;;;6.32;;
13580;SDS011;6861;46.170;7.222;2022-07-23T15:26:37;6.90;;;6.30;;
13580;SDS011;6861;46.170;7.222;2022-07-23T15:29:04;7.55;;;6.00;;